sensor_id;sensor_type;location;lat;lon;timestamp;P1;durP1;ratioP1;P2;durP2;ratioP2
61741;SDS011;47650;49.848;9.620;2023-05-19T00:01:01;6.50;;;2.80;;
61741;SDS011;47650;49.848;9.620;2023-05-19T00:06:00;6.28;;;2.53;;
61741;SDS011;47650;49.848;9.620;2023-05-19T00:08:34;7.53;;;3.20;;
61741;SDS011;47650;49.848;9.620;2023-05-19T00:11:03;7.28;;;3.20;;
61741;SDS011;47650;49.848;9.620;2023-05-19T00:13:34;6.22;;;2.90;;
61741;SDS011;47650;49.848;9.620;2023-05-19T00:16:08;6.72;;;3.00;;
61741;SDS011;47650;49.848;9.620;2023-05-19T00:18:35;10.07;;;3.10;;
61741;SDS011;47650;49.848;9.620;2023-05-19T00:21:03;4.72;;;2.63;;
61741;SDS011;47650;49.848;9.620;2023-05-19T00:23:29;6.25;;;3.15;;
61741;SDS011;47650;49.848;9.620;2023-05-19T00:25:56;9.70;;;2.88;;
61741;SDS011;47650;49.848;9.620;2023-05-19T00:28:22;6.50;;;2.72;;
61741;SDS011;47650;49.848;9.620;2023-05-19T00:30:49;5.85;;;3.00;;
61741;SDS011;47650;49.848;9.620;2023-05-19T00:33:22;6.30;;;3.05;;
61741;SDS011;47650;49.848;9.620;2023-05-19T00:35:47;7.28;;;3.20;;
61741;SDS011;47650;49.848;9.620;2023-05-19T00:38:16;7.63;;;2.92;;
61741;SDS011;47650;49.848;9.620;2023-05-19T00:40:44;8.80;;;3.33;;
61741;SDS011;47650;49.848;9.620;2023-05-19T00:43:12;4.47;;;2.90;;
61741;SDS011;47650;49.848;9.620;2023-05-19T00:45:45;4.28;;;3.13;;
61741;SDS011;47650;49.848;9.620;2023-05-19T00:48:17;8.18;;;4.15;;
61741;SDS011;47650;49.848;9.620;2023-05-19T00:50:44;7.20;;;3.25;;
61741;SDS011;47650;49.848;9.620;2023-05-19T00:53:10;8.65;;;3.42;;
61741;SDS011;47650;49.848;9.620;2023-05-19T00:55:38;5.22;;;3.17;;
61741;SDS011;47650;49.848;9.620;2023-05-19T00:58:29;12.23;;;3.75;;
61741;SDS011;47650;49.848;9.620;2023-05-19T01:01:06;6.17;;;3.27;;
61741;SDS011;47650;49.848;9.620;2023-05-19T01:03:39;7.05;;;2.90;;
61741;SDS011;47650;49.848;9.620;2023-05-19T01:06:08;7.78;;;3.63;;
61741;SDS011;47650;49.848;9.620;2023-05-19T01:08:39;9.65;;;3.83;;
61741;SDS011;47650;49.848;9.620;2023-05-19T01:11:06;9.52;;;3.65;;
61741;SDS011;47650;49.848;9.620;2023-05-19T01:13:33;5.93;;;2.88;;
61741;SDS011;47650;49.848;9.620;2023-05-19T01:29:17;6.95;;;3.53;;
61741;SDS011;47650;49.848;9.620;2023-05-19T01:32:09;7.85;;;3.97;;
61741;SDS011;47650;49.848;9.620;2023-05-19T01:34:44;5.82;;;3.33;;
61741;SDS011;47650;49.848;9.620;2023-05-19T01:37:21;7.55;;;3.55;;
61741;SDS011;47650;49.848;9.620;2023-05-19T01:39:47;6.60;;;3.50;;
61741;SDS011;47650;49.848;9.620;2023-05-19T01:42:18;8.45;;;3.95;;
61741;SDS011;47650;49.848;9.620;2023-05-19T01:44:53;6.00;;;3.25;;
61741;SDS011;47650;49.848;9.620;2023-05-19T01:47:20;5.15;;;3.25;;
61741;SDS011;47650;49.848;9.620;2023-05-19T01:49:46;7.95;;;3.80;;
61741;SDS011;47650;49.848;9.620;2023-05-19T01:52:27;6.65;;;3.53;;
61741;SDS011;47650;49.848;9.620;2023-05-19T01:54:54;6.15;;;3.35;;
61741;SDS011;47650;49.848;9.620;2023-05-19T02:11:51;7.78;;;3.08;;
61741;SDS011;47650;49.848;9.620;2023-05-19T02:14:39;7.70;;;3.20;;
61741;SDS011;47650;49.848;9.620;2023-05-19T02:17:19;9.25;;;4.05;;
61741;SDS011;47650;49.848;9.620;2023-05-19T02:19:56;10.75;;;3.67;;
61741;SDS011;47650;49.848;9.620;2023-05-19T02:22:41;6.90;;;3.42;;
61741;SDS011;47650;49.848;9.620;2023-05-19T02:25:09;6.50;;;3.65;;
61741;SDS011;47650;49.848;9.620;2023-05-19T02:27:41;8.65;;;3.60;;
61741;SDS011;47650;49.848;9.620;2023-05-19T02:30:11;7.82;;;3.08;;
61741;SDS011;47650;49.848;9.620;2023-05-19T02:32:38;8.43;;;3.45;;
61741;SDS011;47650;49.848;9.620;2023-05-19T02:35:05;5.10;;;3.65;;
61741;SDS011;47650;49.848;9.620;2023-05-19T02:37:31;8.68;;;3.70;;
61741;SDS011;47650;49.848;9.620;2023-05-19T02:39:56;5.97;;;3.67;;
61741;SDS011;47650;49.848;9.620;2023-05-19T02:42:22;5.47;;;3.03;;
61741;SDS011;47650;49.848;9.620;2023-05-19T02:44:49;8.68;;;4.43;;
61741;SDS011;47650;49.848;9.620;2023-05-19T02:47:24;8.43;;;4.10;;
61741;SDS011;47650;49.848;9.620;2023-05-19T02:49:56;6.75;;;3.63;;
61741;SDS011;47650;49.848;9.620;2023-05-19T02:52:21;8.63;;;3.38;;
61741;SDS011;47650;49.848;9.620;2023-05-19T02:54:48;9.43;;;3.53;;
61741;SDS011;47650;49.848;9.620;2023-05-19T02:57:24;6.38;;;3.55;;
61741;SDS011;47650;49.848;9.620;2023-05-19T03:00:06;9.57;;;4.80;;
61741;SDS011;47650;49.848;9.620;2023-05-19T03:02:32;7.43;;;4.10;;
61741;SDS011;47650;49.848;9.620;2023-05-19T03:04:59;8.55;;;4.07;;
61741;SDS011;47650;49.848;9.620;2023-05-19T03:07:27;9.73;;;3.67;;
61741;SDS011;47650;49.848;9.620;2023-05-19T03:09:58;5.07;;;3.55;;
61741;SDS011;47650;49.848;9.620;2023-05-19T03:12:23;7.85;;;3.55;;
61741;SDS011;47650;49.848;9.620;2023-05-19T03:14:49;7.40;;;3.58;;
61741;SDS011;47650;49.848;9.620;2023-05-19T03:17:16;9.20;;;3.75;;
61741;SDS011;47650;49.848;9.620;2023-05-19T03:19:41;6.88;;;3.55;;
61741;SDS011;47650;49.848;9.620;2023-05-19T03:22:08;12.77;;;4.70;;
61741;SDS011;47650;49.848;9.620;2023-05-19T03:24:34;10.95;;;4.28;;
61741;SDS011;47650;49.848;9.620;2023-05-19T03:27:00;6.45;;;3.95;;
61741;SDS011;47650;49.848;9.620;2023-05-19T03:29:32;11.80;;;3.78;;
61741;SDS011;47650;49.848;9.620;2023-05-19T03:31:59;9.80;;;4.57;;
61741;SDS011;47650;49.848;9.620;2023-05-19T03:34:25;9.18;;;4.50;;
61741;SDS011;47650;49.848;9.620;2023-05-19T03:36:52;7.00;;;5.15;;
61741;SDS011;47650;49.848;9.620;2023-05-19T03:39:18;9.20;;;5.07;;
61741;SDS011;47650;49.848;9.620;2023-05-19T03:41:51;9.50;;;4.88;;
61741;SDS011;47650;49.848;9.620;2023-05-19T03:44:17;7.05;;;3.10;;
61741;SDS011;47650;49.848;9.620;2023-05-19T03:46:47;9.98;;;3.83;;
61741;SDS011;47650;49.848;9.620;2023-05-19T03:49:12;6.90;;;3.08;;
61741;SDS011;47650;49.848;9.620;2023-05-19T03:51:41;9.30;;;3.78;;
61741;SDS011;47650;49.848;9.620;2023-05-19T03:54:18;6.63;;;3.55;;
61741;SDS011;47650;49.848;9.620;2023-05-19T03:56:55;7.50;;;3.75;;
61741;SDS011;47650;49.848;9.620;2023-05-19T03:59:27;7.53;;;3.50;;
61741;SDS011;47650;49.848;9.620;2023-05-19T04:01:59;6.32;;;3.05;;
61741;SDS011;47650;49.848;9.620;2023-05-19T04:04:26;6.25;;;2.67;;
61741;SDS011;47650;49.848;9.620;2023-05-19T04:06:52;8.85;;;3.53;;
61741;SDS011;47650;49.848;9.620;2023-05-19T04:09:41;9.75;;;3.47;;
61741;SDS011;47650;49.848;9.620;2023-05-19T04:12:13;4.90;;;2.90;;
61741;SDS011;47650;49.848;9.620;2023-05-19T04:14:53;5.07;;;2.70;;
61741;SDS011;47650;49.848;9.620;2023-05-19T04:17:23;8.70;;;4.70;;
61741;SDS011;47650;49.848;9.620;2023-05-19T04:19:50;8.43;;;3.95;;
61741;SDS011;47650;49.848;9.620;2023-05-19T04:22:25;6.80;;;3.23;;
61741;SDS011;47650;49.848;9.620;2023-05-19T04:24:56;8.02;;;2.95;;
61741;SDS011;47650;49.848;9.620;2023-05-19T04:27:30;5.72;;;2.80;;
61741;SDS011;47650;49.848;9.620;2023-05-19T04:29:56;6.80;;;2.67;;
61741;SDS011;47650;49.848;9.620;2023-05-19T04:32:24;7.07;;;2.78;;
61741;SDS011;47650;49.848;9.620;2023-05-19T04:35:05;7.93;;;3.47;;
61741;SDS011;47650;49.848;9.620;2023-05-19T04:37:33;8.07;;;2.88;;
61741;SDS011;47650;49.848;9.620;2023-05-19T04:40:03;6.72;;;2.80;;
61741;SDS011;47650;49.848;9.620;2023-05-19T04:42:30;5.10;;;2.65;;
61741;SDS011;47650;49.848;9.620;2023-05-19T04:44:58;5.82;;;2.42;;
61741;SDS011;47650;49.848;9.620;2023-05-19T04:47:33;5.72;;;2.60;;
61741;SDS011;47650;49.848;9.620;2023-05-19T04:50:06;6.60;;;2.25;;
61741;SDS011;47650;49.848;9.620;2023-05-19T04:52:32;3.55;;;2.45;;
61741;SDS011;47650;49.848;9.620;2023-05-19T04:54:58;3.70;;;2.30;;
61741;SDS011;47650;49.848;9.620;2023-05-19T04:57:33;7.63;;;2.83;;
61741;SDS011;47650;49.848;9.620;2023-05-19T05:00:00;6.80;;;2.97;;
61741;SDS011;47650;49.848;9.620;2023-05-19T05:02:28;5.85;;;3.30;;
61741;SDS011;47650;49.848;9.620;2023-05-19T05:04:57;5.38;;;2.78;;
61741;SDS011;47650;49.848;9.620;2023-05-19T05:07:23;7.40;;;2.60;;
61741;SDS011;47650;49.848;9.620;2023-05-19T05:09:57;6.38;;;2.55;;
61741;SDS011;47650;49.848;9.620;2023-05-19T05:12:25;8.70;;;2.38;;
61741;SDS011;47650;49.848;9.620;2023-05-19T05:14:53;5.88;;;2.53;;
61741;SDS011;47650;49.848;9.620;2023-05-19T05:17:19;4.70;;;2.38;;
61741;SDS011;47650;49.848;9.620;2023-05-19T05:19:46;4.70;;;2.45;;
61741;SDS011;47650;49.848;9.620;2023-05-19T05:22:13;7.65;;;2.33;;
61741;SDS011;47650;49.848;9.620;2023-05-19T05:24:43;5.22;;;2.65;;
61741;SDS011;47650;49.848;9.620;2023-05-19T05:27:10;4.95;;;2.05;;
61741;SDS011;47650;49.848;9.620;2023-05-19T05:29:36;5.38;;;2.42;;
61741;SDS011;47650;49.848;9.620;2023-05-19T05:32:03;7.45;;;2.80;;
61741;SDS011;47650;49.848;9.620;2023-05-19T05:34:29;7.35;;;2.72;;
61741;SDS011;47650;49.848;9.620;2023-05-19T05:36:57;6.65;;;3.00;;
61741;SDS011;47650;49.848;9.620;2023-05-19T05:39:22;6.55;;;2.50;;
61741;SDS011;47650;49.848;9.620;2023-05-19T05:41:48;5.28;;;2.35;;
61741;SDS011;47650;49.848;9.620;2023-05-19T05:44:22;6.20;;;2.28;;
61741;SDS011;47650;49.848;9.620;2023-05-19T05:46:48;7.28;;;2.35;;
61741;SDS011;47650;49.848;9.620;2023-05-19T05:49:21;6.68;;;2.10;;
61741;SDS011;47650;49.848;9.620;2023-05-19T05:51:47;5.25;;;2.08;;
61741;SDS011;47650;49.848;9.620;2023-05-19T05:54:13;5.88;;;2.70;;
61741;SDS011;47650;49.848;9.620;2023-05-19T05:56:42;7.25;;;2.78;;
61741;SDS011;47650;49.848;9.620;2023-05-19T05:59:18;7.20;;;2.50;;
61741;SDS011;47650;49.848;9.620;2023-05-19T06:01:54;8.88;;;2.47;;
61741;SDS011;47650;49.848;9.620;2023-05-19T06:04:19;5.95;;;2.65;;
61741;SDS011;47650;49.848;9.620;2023-05-19T06:06:45;7.57;;;2.88;;
61741;SDS011;47650;49.848;9.620;2023-05-19T06:09:10;7.57;;;3.20;;
61741;SDS011;47650;49.848;9.620;2023-05-19T06:11:36;10.55;;;3.30;;
61741;SDS011;47650;49.848;9.620;2023-05-19T06:14:01;9.55;;;3.55;;
61741;SDS011;47650;49.848;9.620;2023-05-19T06:16:30;14.80;;;4.22;;
61741;SDS011;47650;49.848;9.620;2023-05-19T06:19:03;5.93;;;2.42;;
61741;SDS011;47650;49.848;9.620;2023-05-19T06:21:32;8.15;;;2.47;;
61741;SDS011;47650;49.848;9.620;2023-05-19T06:23:58;6.95;;;2.95;;
61741;SDS011;47650;49.848;9.620;2023-05-19T06:26:31;6.65;;;2.50;;
61741;SDS011;47650;49.848;9.620;2023-05-19T06:29:02;6.10;;;2.42;;
61741;SDS011;47650;49.848;9.620;2023-05-19T06:31:33;7.43;;;2.50;;
61741;SDS011;47650;49.848;9.620;2023-05-19T06:34:07;6.55;;;2.90;;
61741;SDS011;47650;49.848;9.620;2023-05-19T06:36:36;6.72;;;2.90;;
61741;SDS011;47650;49.848;9.620;2023-05-19T06:39:03;7.95;;;3.78;;
61741;SDS011;47650;49.848;9.620;2023-05-19T06:41:31;8.60;;;3.72;;
61741;SDS011;47650;49.848;9.620;2023-05-19T06:43:56;8.70;;;3.70;;
61741;SDS011;47650;49.848;9.620;2023-05-19T06:46:22;10.38;;;2.58;;
61741;SDS011;47650;49.848;9.620;2023-05-19T06:48:51;7.28;;;3.25;;
61741;SDS011;47650;49.848;9.620;2023-05-19T06:51:16;8.15;;;2.80;;
61741;SDS011;47650;49.848;9.620;2023-05-19T06:53:45;7.22;;;2.50;;
61741;SDS011;47650;49.848;9.620;2023-05-19T06:56:11;6.38;;;2.30;;
61741;SDS011;47650;49.848;9.620;2023-05-19T06:58:40;6.78;;;2.03;;
61741;SDS011;47650;49.848;9.620;2023-05-19T07:01:07;9.35;;;2.58;;
61741;SDS011;47650;49.848;9.620;2023-05-19T07:03:32;5.43;;;2.55;;
61741;SDS011;47650;49.848;9.620;2023-05-19T07:05:58;6.70;;;2.50;;
61741;SDS011;47650;49.848;9.620;2023-05-19T07:08:23;6.68;;;2.63;;
61741;SDS011;47650;49.848;9.620;2023-05-19T07:10:48;4.38;;;2.10;;
61741;SDS011;47650;49.848;9.620;2023-05-19T07:13:14;6.70;;;2.17;;
61741;SDS011;47650;49.848;9.620;2023-05-19T07:15:39;7.47;;;2.83;;
61741;SDS011;47650;49.848;9.620;2023-05-19T07:18:05;5.70;;;2.28;;
61741;SDS011;47650;49.848;9.620;2023-05-19T07:20:32;8.82;;;2.80;;
61741;SDS011;47650;49.848;9.620;2023-05-19T07:22:58;8.27;;;2.95;;
61741;SDS011;47650;49.848;9.620;2023-05-19T07:25:33;6.43;;;2.55;;
61741;SDS011;47650;49.848;9.620;2023-05-19T07:28:00;8.57;;;2.40;;
61741;SDS011;47650;49.848;9.620;2023-05-19T07:30:26;7.32;;;2.72;;
61741;SDS011;47650;49.848;9.620;2023-05-19T07:32:54;5.18;;;2.40;;
61741;SDS011;47650;49.848;9.620;2023-05-19T07:35:21;9.75;;;2.55;;
61741;SDS011;47650;49.848;9.620;2023-05-19T07:37:47;7.05;;;2.35;;
61741;SDS011;47650;49.848;9.620;2023-05-19T07:40:13;4.88;;;2.15;;
61741;SDS011;47650;49.848;9.620;2023-05-19T07:42:43;6.40;;;2.50;;
61741;SDS011;47650;49.848;9.620;2023-05-19T07:45:17;4.82;;;2.50;;
61741;SDS011;47650;49.848;9.620;2023-05-19T07:47:45;6.22;;;2.40;;
61741;SDS011;47650;49.848;9.620;2023-05-19T07:50:14;8.27;;;2.78;;
61741;SDS011;47650;49.848;9.620;2023-05-19T07:52:41;5.75;;;2.38;;
61741;SDS011;47650;49.848;9.620;2023-05-19T07:55:11;8.30;;;2.85;;
61741;SDS011;47650;49.848;9.620;2023-05-19T07:57:40;8.65;;;2.78;;
61741;SDS011;47650;49.848;9.620;2023-05-19T08:00:06;7.13;;;2.97;;
61741;SDS011;47650;49.848;9.620;2023-05-19T08:02:33;12.18;;;3.00;;
61741;SDS011;47650;49.848;9.620;2023-05-19T08:05:00;8.00;;;3.92;;
61741;SDS011;47650;49.848;9.620;2023-05-19T08:07:25;13.02;;;3.10;;
61741;SDS011;47650;49.848;9.620;2023-05-19T08:09:50;10.38;;;2.70;;
61741;SDS011;47650;49.848;9.620;2023-05-19T08:12:16;8.13;;;2.63;;
61741;SDS011;47650;49.848;9.620;2023-05-19T08:14:41;6.15;;;3.60;;
61741;SDS011;47650;49.848;9.620;2023-05-19T08:17:10;10.15;;;3.78;;
61741;SDS011;47650;49.848;9.620;2023-05-19T08:19:36;6.10;;;2.78;;
61741;SDS011;47650;49.848;9.620;2023-05-19T08:22:02;6.85;;;2.90;;
61741;SDS011;47650;49.848;9.620;2023-05-19T08:24:27;5.05;;;2.80;;
61741;SDS011;47650;49.848;9.620;2023-05-19T08:26:57;6.95;;;3.22;;
61741;SDS011;47650;49.848;9.620;2023-05-19T08:29:23;8.02;;;2.80;;
61741;SDS011;47650;49.848;9.620;2023-05-19T08:31:54;7.28;;;2.90;;
61741;SDS011;47650;49.848;9.620;2023-05-19T08:34:22;5.70;;;2.60;;
61741;SDS011;47650;49.848;9.620;2023-05-19T08:36:48;8.88;;;2.63;;
61741;SDS011;47650;49.848;9.620;2023-05-19T08:39:15;9.23;;;3.67;;
61741;SDS011;47650;49.848;9.620;2023-05-19T08:41:42;14.32;;;2.88;;
61741;SDS011;47650;49.848;9.620;2023-05-19T08:44:09;7.50;;;3.00;;
61741;SDS011;47650;49.848;9.620;2023-05-19T08:49:08;7.57;;;3.67;;
61741;SDS011;47650;49.848;9.620;2023-05-19T08:51:38;9.95;;;3.85;;
61741;SDS011;47650;49.848;9.620;2023-05-19T08:54:11;6.93;;;3.47;;
61741;SDS011;47650;49.848;9.620;2023-05-19T08:56:40;5.68;;;3.45;;
61741;SDS011;47650;49.848;9.620;2023-05-19T08:59:07;10.23;;;4.55;;
61741;SDS011;47650;49.848;9.620;2023-05-19T09:01:34;10.32;;;4.88;;
61741;SDS011;47650;49.848;9.620;2023-05-19T09:04:00;10.93;;;3.45;;
61741;SDS011;47650;49.848;9.620;2023-05-19T09:06:27;8.10;;;3.38;;
61741;SDS011;47650;49.848;9.620;2023-05-19T09:08:57;6.95;;;3.70;;
61741;SDS011;47650;49.848;9.620;2023-05-19T09:11:30;9.07;;;4.28;;
61741;SDS011;47650;49.848;9.620;2023-05-19T09:13:55;8.95;;;3.30;;
61741;SDS011;47650;49.848;9.620;2023-05-19T09:16:20;11.43;;;3.33;;
61741;SDS011;47650;49.848;9.620;2023-05-19T09:18:54;5.07;;;2.83;;
61741;SDS011;47650;49.848;9.620;2023-05-19T09:21:31;8.40;;;3.30;;
61741;SDS011;47650;49.848;9.620;2023-05-19T09:24:03;6.18;;;2.85;;
61741;SDS011;47650;49.848;9.620;2023-05-19T09:26:39;7.18;;;2.85;;
61741;SDS011;47650;49.848;9.620;2023-05-19T09:29:14;4.63;;;2.60;;
61741;SDS011;47650;49.848;9.620;2023-05-19T09:31:49;8.80;;;3.00;;
61741;SDS011;47650;49.848;9.620;2023-05-19T09:34:19;5.47;;;2.70;;
61741;SDS011;47650;49.848;9.620;2023-05-19T09:36:46;6.55;;;2.95;;
61741;SDS011;47650;49.848;9.620;2023-05-19T09:41:46;9.57;;;3.90;;
61741;SDS011;47650;49.848;9.620;2023-05-19T09:44:21;9.10;;;5.18;;
61741;SDS011;47650;49.848;9.620;2023-05-19T09:46:47;5.60;;;3.50;;
61741;SDS011;47650;49.848;9.620;2023-05-19T09:49:20;5.53;;;3.55;;
61741;SDS011;47650;49.848;9.620;2023-05-19T09:51:48;7.13;;;3.22;;
61741;SDS011;47650;49.848;9.620;2023-05-19T09:54:20;6.70;;;3.50;;
61741;SDS011;47650;49.848;9.620;2023-05-19T09:57:01;4.87;;;3.30;;
61741;SDS011;47650;49.848;9.620;2023-05-19T09:59:28;4.88;;;2.90;;
61741;SDS011;47650;49.848;9.620;2023-05-19T10:01:55;7.70;;;3.35;;
61741;SDS011;47650;49.848;9.620;2023-05-19T10:04:23;6.25;;;3.50;;
61741;SDS011;47650;49.848;9.620;2023-05-19T10:06:52;9.48;;;3.15;;
61741;SDS011;47650;49.848;9.620;2023-05-19T10:09:23;8.20;;;2.78;;
61741;SDS011;47650;49.848;9.620;2023-05-19T10:11:52;7.22;;;3.30;;
61741;SDS011;47650;49.848;9.620;2023-05-19T10:14:22;3.90;;;2.72;;
61741;SDS011;47650;49.848;9.620;2023-05-19T10:16:49;7.05;;;3.05;;
61741;SDS011;47650;49.848;9.620;2023-05-19T10:19:17;5.22;;;3.20;;
61741;SDS011;47650;49.848;9.620;2023-05-19T10:21:44;7.50;;;2.90;;
61741;SDS011;47650;49.848;9.620;2023-05-19T10:24:10;7.28;;;2.72;;
61741;SDS011;47650;49.848;9.620;2023-05-19T10:26:35;5.53;;;2.55;;
61741;SDS011;47650;49.848;9.620;2023-05-19T10:29:01;4.68;;;3.03;;
61741;SDS011;47650;49.848;9.620;2023-05-19T10:31:28;7.72;;;3.97;;
61741;SDS011;47650;49.848;9.620;2023-05-19T10:34:07;7.35;;;2.80;;
61741;SDS011;47650;49.848;9.620;2023-05-19T10:36:43;6.63;;;2.72;;
61741;SDS011;47650;49.848;9.620;2023-05-19T10:44:45;3.63;;;2.60;;
61741;SDS011;47650;49.848;9.620;2023-05-19T10:47:23;5.35;;;2.70;;
61741;SDS011;47650;49.848;9.620;2023-05-19T10:49:50;6.22;;;2.53;;
61741;SDS011;47650;49.848;9.620;2023-05-19T10:52:19;6.28;;;2.67;;
61741;SDS011;47650;49.848;9.620;2023-05-19T10:54:47;6.70;;;2.40;;
61741;SDS011;47650;49.848;9.620;2023-05-19T10:57:13;5.25;;;2.80;;
61741;SDS011;47650;49.848;9.620;2023-05-19T10:59:41;5.22;;;2.60;;
61741;SDS011;47650;49.848;9.620;2023-05-19T11:02:08;4.30;;;2.60;;
61741;SDS011;47650;49.848;9.620;2023-05-19T11:04:47;4.28;;;2.40;;
61741;SDS011;47650;49.848;9.620;2023-05-19T11:07:18;5.13;;;2.50;;
61741;SDS011;47650;49.848;9.620;2023-05-19T11:09:49;3.08;;;2.30;;
61741;SDS011;47650;49.848;9.620;2023-05-19T11:12:20;2.92;;;2.20;;
61741;SDS011;47650;49.848;9.620;2023-05-19T11:14:46;3.33;;;2.08;;
61741;SDS011;47650;49.848;9.620;2023-05-19T11:17:14;2.80;;;2.10;;
61741;SDS011;47650;49.848;9.620;2023-05-19T11:19:50;2.25;;;1.67;;
61741;SDS011;47650;49.848;9.620;2023-05-19T11:22:17;2.55;;;1.80;;
61741;SDS011;47650;49.848;9.620;2023-05-19T11:24:47;3.33;;;2.58;;
61741;SDS011;47650;49.848;9.620;2023-05-19T11:30:00;2.85;;;2.22;;
61741;SDS011;47650;49.848;9.620;2023-05-19T11:32:34;3.08;;;1.95;;
61741;SDS011;47650;49.848;9.620;2023-05-19T11:35:08;3.45;;;2.22;;
61741;SDS011;47650;49.848;9.620;2023-05-19T11:37:34;3.47;;;2.03;;
61741;SDS011;47650;49.848;9.620;2023-05-19T11:40:03;3.08;;;2.03;;
61741;SDS011;47650;49.848;9.620;2023-05-19T11:42:50;3.70;;;2.00;;
61741;SDS011;47650;49.848;9.620;2023-05-19T11:45:23;5.10;;;2.72;;
61741;SDS011;47650;49.848;9.620;2023-05-19T11:47:56;5.63;;;2.25;;
61741;SDS011;47650;49.848;9.620;2023-05-19T11:50:23;4.50;;;2.28;;
61741;SDS011;47650;49.848;9.620;2023-05-19T11:52:49;3.45;;;2.15;;
61741;SDS011;47650;49.848;9.620;2023-05-19T11:55:16;5.20;;;2.20;;
61741;SDS011;47650;49.848;9.620;2023-05-19T12:00:21;5.32;;;2.30;;
61741;SDS011;47650;49.848;9.620;2023-05-19T12:02:47;3.65;;;1.98;;
61741;SDS011;47650;49.848;9.620;2023-05-19T12:05:22;4.13;;;2.13;;
61741;SDS011;47650;49.848;9.620;2023-05-19T12:07:48;4.10;;;2.00;;
61741;SDS011;47650;49.848;9.620;2023-05-19T12:10:22;4.97;;;2.00;;
61741;SDS011;47650;49.848;9.620;2023-05-19T12:12:49;5.05;;;2.05;;
61741;SDS011;47650;49.848;9.620;2023-05-19T12:15:17;4.93;;;2.30;;
61741;SDS011;47650;49.848;9.620;2023-05-19T12:17:45;5.15;;;2.15;;
61741;SDS011;47650;49.848;9.620;2023-05-19T12:20:13;4.07;;;2.10;;
61741;SDS011;47650;49.848;9.620;2023-05-19T12:22:39;4.57;;;2.13;;
61741;SDS011;47650;49.848;9.620;2023-05-19T12:25:05;5.53;;;2.42;;
61741;SDS011;47650;49.848;9.620;2023-05-19T12:27:34;5.38;;;2.50;;
61741;SDS011;47650;49.848;9.620;2023-05-19T12:30:01;3.92;;;2.00;;
61741;SDS011;47650;49.848;9.620;2023-05-19T12:32:29;6.40;;;2.10;;
61741;SDS011;47650;49.848;9.620;2023-05-19T12:35:06;3.58;;;2.25;;
61741;SDS011;47650;49.848;9.620;2023-05-19T12:37:32;4.07;;;2.15;;
61741;SDS011;47650;49.848;9.620;2023-05-19T12:39:58;3.00;;;2.03;;
61741;SDS011;47650;49.848;9.620;2023-05-19T12:42:29;3.47;;;2.28;;
61741;SDS011;47650;49.848;9.620;2023-05-19T12:44:55;4.25;;;2.40;;
61741;SDS011;47650;49.848;9.620;2023-05-19T12:47:22;4.10;;;2.00;;
61741;SDS011;47650;49.848;9.620;2023-05-19T12:50:02;3.15;;;2.00;;
61741;SDS011;47650;49.848;9.620;2023-05-19T12:52:29;2.03;;;1.80;;
61741;SDS011;47650;49.848;9.620;2023-05-19T12:55:00;3.58;;;2.30;;
61741;SDS011;47650;49.848;9.620;2023-05-19T12:57:26;5.68;;;2.05;;
61741;SDS011;47650;49.848;9.620;2023-05-19T13:00:03;3.08;;;1.90;;
61741;SDS011;47650;49.848;9.620;2023-05-19T13:02:53;4.47;;;1.88;;
61741;SDS011;47650;49.848;9.620;2023-05-19T13:08:07;3.78;;;2.20;;
61741;SDS011;47650;49.848;9.620;2023-05-19T13:10:48;4.93;;;2.08;;
61741;SDS011;47650;49.848;9.620;2023-05-19T13:13:14;6.63;;;2.17;;
61741;SDS011;47650;49.848;9.620;2023-05-19T13:15:42;4.47;;;1.70;;
61741;SDS011;47650;49.848;9.620;2023-05-19T13:18:12;4.97;;;2.20;;
61741;SDS011;47650;49.848;9.620;2023-05-19T13:20:38;3.78;;;2.00;;
61741;SDS011;47650;49.848;9.620;2023-05-19T13:23:05;4.35;;;1.75;;
61741;SDS011;47650;49.848;9.620;2023-05-19T13:25:33;4.47;;;1.90;;
61741;SDS011;47650;49.848;9.620;2023-05-19T13:27:59;4.38;;;2.00;;
61741;SDS011;47650;49.848;9.620;2023-05-19T13:30:25;4.25;;;1.83;;
61741;SDS011;47650;49.848;9.620;2023-05-19T13:32:51;3.22;;;1.85;;
61741;SDS011;47650;49.848;9.620;2023-05-19T13:35:18;3.25;;;2.30;;
61741;SDS011;47650;49.848;9.620;2023-05-19T13:37:43;3.00;;;1.95;;
61741;SDS011;47650;49.848;9.620;2023-05-19T13:40:09;3.25;;;2.15;;
61741;SDS011;47650;49.848;9.620;2023-05-19T13:42:35;3.85;;;2.20;;
61741;SDS011;47650;49.848;9.620;2023-05-19T13:45:02;3.90;;;2.40;;
61741;SDS011;47650;49.848;9.620;2023-05-19T13:47:28;4.30;;;2.20;;
61741;SDS011;47650;49.848;9.620;2023-05-19T13:49:54;4.55;;;2.28;;
61741;SDS011;47650;49.848;9.620;2023-05-19T13:52:24;5.53;;;2.50;;
61741;SDS011;47650;49.848;9.620;2023-05-19T13:54:52;4.22;;;2.30;;
61741;SDS011;47650;49.848;9.620;2023-05-19T13:57:18;5.82;;;2.15;;
61741;SDS011;47650;49.848;9.620;2023-05-19T13:59:44;4.00;;;2.05;;
61741;SDS011;47650;49.848;9.620;2023-05-19T14:02:09;6.50;;;2.40;;
61741;SDS011;47650;49.848;9.620;2023-05-19T14:04:36;3.60;;;2.40;;
61741;SDS011;47650;49.848;9.620;2023-05-19T14:07:03;4.70;;;2.38;;
61741;SDS011;47650;49.848;9.620;2023-05-19T14:09:31;3.83;;;2.50;;
61741;SDS011;47650;49.848;9.620;2023-05-19T14:11:57;2.38;;;1.90;;
61741;SDS011;47650;49.848;9.620;2023-05-19T14:14:23;5.10;;;2.35;;
61741;SDS011;47650;49.848;9.620;2023-05-19T14:16:49;7.10;;;2.40;;
61741;SDS011;47650;49.848;9.620;2023-05-19T14:19:15;3.58;;;2.45;;
61741;SDS011;47650;49.848;9.620;2023-05-19T14:21:42;4.15;;;2.10;;
61741;SDS011;47650;49.848;9.620;2023-05-19T14:24:08;6.18;;;2.42;;
61741;SDS011;47650;49.848;9.620;2023-05-19T14:26:34;5.38;;;2.50;;
61741;SDS011;47650;49.848;9.620;2023-05-19T14:29:01;3.33;;;2.13;;
61741;SDS011;47650;49.848;9.620;2023-05-19T14:31:26;4.75;;;2.22;;
61741;SDS011;47650;49.848;9.620;2023-05-19T14:33:52;2.95;;;2.10;;
61741;SDS011;47650;49.848;9.620;2023-05-19T14:36:17;4.53;;;2.42;;
61741;SDS011;47650;49.848;9.620;2023-05-19T14:38:42;3.47;;;2.05;;
61741;SDS011;47650;49.848;9.620;2023-05-19T14:41:08;5.93;;;2.47;;
61741;SDS011;47650;49.848;9.620;2023-05-19T14:43:34;4.05;;;2.33;;
61741;SDS011;47650;49.848;9.620;2023-05-19T14:46:01;4.47;;;2.38;;
61741;SDS011;47650;49.848;9.620;2023-05-19T14:48:26;5.53;;;2.30;;
61741;SDS011;47650;49.848;9.620;2023-05-19T14:50:52;5.85;;;2.35;;
61741;SDS011;47650;49.848;9.620;2023-05-19T14:53:19;3.93;;;2.10;;
61741;SDS011;47650;49.848;9.620;2023-05-19T14:55:48;4.45;;;1.90;;
61741;SDS011;47650;49.848;9.620;2023-05-19T14:58:14;3.60;;;1.90;;
61741;SDS011;47650;49.848;9.620;2023-05-19T15:00:42;2.28;;;1.92;;
61741;SDS011;47650;49.848;9.620;2023-05-19T15:03:08;4.25;;;2.20;;
61741;SDS011;47650;49.848;9.620;2023-05-19T15:05:42;5.05;;;2.00;;
61741;SDS011;47650;49.848;9.620;2023-05-19T15:08:09;3.25;;;2.05;;
61741;SDS011;47650;49.848;9.620;2023-05-19T15:10:34;3.65;;;1.90;;
61741;SDS011;47650;49.848;9.620;2023-05-19T15:13:00;3.38;;;1.88;;
61741;SDS011;47650;49.848;9.620;2023-05-19T15:15:32;3.00;;;2.28;;
61741;SDS011;47650;49.848;9.620;2023-05-19T15:17:57;3.67;;;2.30;;
61741;SDS011;47650;49.848;9.620;2023-05-19T15:20:24;3.50;;;2.17;;
61741;SDS011;47650;49.848;9.620;2023-05-19T15:22:50;4.97;;;2.30;;
61741;SDS011;47650;49.848;9.620;2023-05-19T15:25:16;3.50;;;1.80;;
61741;SDS011;47650;49.848;9.620;2023-05-19T15:27:41;2.60;;;1.83;;
61741;SDS011;47650;49.848;9.620;2023-05-19T15:30:07;4.53;;;1.70;;
61741;SDS011;47650;49.848;9.620;2023-05-19T15:32:32;5.65;;;2.15;;
61741;SDS011;47650;49.848;9.620;2023-05-19T15:34:58;4.32;;;2.03;;
61741;SDS011;47650;49.848;9.620;2023-05-19T15:37:23;4.43;;;2.45;;
61741;SDS011;47650;49.848;9.620;2023-05-19T15:39:49;4.35;;;2.15;;
61741;SDS011;47650;49.848;9.620;2023-05-19T15:42:16;3.45;;;1.83;;
61741;SDS011;47650;49.848;9.620;2023-05-19T15:44:43;6.03;;;2.05;;
61741;SDS011;47650;49.848;9.620;2023-05-19T15:47:10;4.20;;;1.92;;